Time;durP1;ratioP1;P1;durP2;ratioP2;P2;SDS_P1;SDS_P2;PMS_P1;PMS_P2;Temp;Humidity;BMP_temperature;BMP_pressure;BME280_temperature;BME280_humidity;BME280_pressure;Samples;Min_cycle;Max_cycle;Signal;HPM_P1;HPM_P2
2022/08/29 00:01:32;;;;;;;5.30;2.90;;;;;;;14.41;75.38;101154.03;5034306;28;20284;-82
2022/08/29 00:04:00;;;;;;;4.73;2.80;;;;;;;14.54;75.31;101146.72;5034086;28;20233;-82
2022/08/29 00:06:29;;;;;;;4.57;3.10;;;;;;;14.43;74.35;101167.13;5033991;28;20230;-82
2022/08/29 00:08:55;;;;;;;6.13;3.00;;;;;;;14.41;75.38;101166.28;5034200;28;20631;-82
2022/08/29 00:11:22;;;;;;;7.17;3.17;;;;;;;14.34;76.03;101147.19;5034088;28;20685;-82
2022/08/29 00:13:50;;;;;;;3.40;3.10;;;;;;;14.34;75.53;101141.09;5034352;28;20277;-82
2022/08/29 00:16:17;;;;;;;3.37;3.07;;;;;;;14.33;75.94;101134.09;5069785;22;20717;-80
2022/08/29 00:18:43;;;;;;;4.37;2.73;;;;;;;14.19;76.04;101116.03;5016105;28;20214;-82
2022/08/29 00:21:10;;;;;;;6.60;3.27;;;;;;;14.12;76.18;101117.09;5017130;28;20230;-81
2022/08/29 00:23:39;;;;;;;4.63;3.20;;;;;;;14.07;76.51;101107.56;5028660;28;20674;-81
2022/08/29 00:26:06;;;;;;;5.93;3.23;;;;;;;14.03;75.79;101108.53;5036906;28;20224;-83
2022/08/29 00:28:32;;;;;;;7.37;3.27;;;;;;;13.96;77.05;101093.81;5035988;28;20276;-81
2022/08/29 00:30:59;;;;;;;5.73;3.30;;;;;;;13.92;76.73;101081.66;5035810;28;20257;-82
2022/08/29 00:33:25;;;;;;;6.23;3.23;;;;;;;13.87;76.55;101104.50;5036108;28;20199;-81
2022/08/29 00:35:51;;;;;;;7.10;3.27;;;;;;;13.77;76.40;101111.69;5036217;28;20229;-81
2022/08/29 00:38:18;;;;;;;5.30;3.00;;;;;;;13.89;76.92;101090.47;5036439;28;20264;-81
2022/08/29 00:40:48;;;;;;;5.27;2.60;;;;;;;13.93;77.20;101079.88;5036018;28;20230;-83
2022/08/29 00:43:17;;;;;;;3.27;2.87;;;;;;;13.91;77.26;101082.53;5036393;28;20209;-82
2022/08/29 00:45:50;;;;;;;5.80;3.33;;;;;;;13.85;76.24;101108.91;5036063;28;20216;-83
2022/08/29 00:48:19;;;;;;;4.73;2.97;;;;;;;13.80;76.42;101116.91;5037191;28;20284;-82
2022/08/29 00:50:49;;;;;;;4.50;2.70;;;;;;;13.70;77.05;101097.84;5032481;28;20198;-83
2022/08/29 00:53:18;;;;;;;5.57;2.90;;;;;;;13.67;77.54;101087.41;5029513;28;20202;-83
2022/08/29 00:55:47;;;;;;;5.80;3.10;;;;;;;13.75;77.71;101070.66;5038516;28;20217;-83
2022/08/29 00:58:17;;;;;;;5.70;2.73;;;;;;;13.83;77.94;101066.09;5038067;28;20236;-82
2022/08/29 01:00:46;;;;;;;5.50;3.00;;;;;;;13.83;78.08;101074.81;5037959;28;20279;-81
2022/08/29 01:03:12;;;;;;;5.60;2.83;;;;;;;13.63;77.51;101079.66;5037681;28;20254;-82
2022/08/29 01:05:39;;;;;;;4.80;3.07;;;;;;;13.70;78.36;101057.66;5036530;28;20632;-82
2022/08/29 01:08:07;;;;;;;5.00;3.10;;;;;;;13.64;77.45;101066.50;5037116;28;20656;-81
2022/08/29 01:13:22;;;;;;;7.63;3.80;;;;;;;13.71;77.73;101077.72;5037033;28;20217;-83
2022/08/29 01:15:49;;;;;;;4.83;2.70;;;;;;;13.68;77.89;101088.31;5036728;28;20206;-82
2022/08/29 01:18:17;;;;;;;4.87;3.50;;;;;;;13.45;77.21;101094.88;5037459;28;20214;-82
2022/08/29 01:20:56;;;;;;;7.63;2.63;;;;;;;13.34;78.29;101080.25;5032246;28;20795;-81
2022/08/29 01:23:32;;;;;;;3.90;3.00;;;;;;;13.53;78.46;101073.72;5029432;28;20249;-81
2022/08/29 01:26:02;;;;;;;4.43;3.17;;;;;;;13.39;77.88;101086.28;5038135;28;20205;-82
2022/08/29 01:28:31;;;;;;;6.53;3.40;;;;;;;13.28;78.55;101065.50;5038444;28;20204;-82
2022/08/29 01:31:00;;;;;;;6.27;3.07;;;;;;;13.19;79.45;101040.31;5037479;28;20256;-81
2022/08/29 01:33:36;;;;;;;3.90;3.00;;;;;;;13.24;79.43;101021.84;5037895;28;20233;-81
2022/08/29 01:36:04;;;;;;;6.87;3.60;;;;;;;13.23;78.84;101034.09;5038377;28;20225;-81
2022/08/29 01:38:31;;;;;;;5.43;2.73;;;;;;;13.29;78.67;101052.38;5037831;28;20214;-81
2022/08/29 01:40:58;;;;;;;5.23;3.37;;;;;;;13.18;78.59;101062.19;5037893;28;20226;-82
2022/08/29 01:43:27;;;;;;;4.17;2.83;;;;;;;13.26;78.86;101062.91;5039696;28;20282;-82
2022/08/29 01:45:53;;;;;;;5.40;3.30;;;;;;;13.21;78.90;101075.22;5041575;28;20795;-83
2022/08/29 01:48:20;;;;;;;5.53;3.07;;;;;;;13.21;78.83;101069.13;5041727;28;20206;-81
2022/08/29 01:50:47;;;;;;;4.20;2.97;;;;;;;13.21;78.62;101069.97;5036396;28;20221;-83
2022/08/29 01:53:14;;;;;;;4.80;2.87;;;;;;;13.17;79.26;101070.94;5033774;28;20194;-82
2022/08/29 01:55:41;;;;;;;6.00;3.20;;;;;;;13.21;78.93;101061.25;5041560;28;20228;-81
2022/08/29 01:58:07;;;;;;;4.20;2.70;;;;;;;13.20;78.68;101062.13;5042093;28;20560;-82
2022/08/29 02:00:36;;;;;;;4.97;3.37;;;;;;;13.26;78.46;101073.38;5041425;28;20236;-83
2022/08/29 02:03:02;;;;;;;5.33;3.83;;;;;;;13.26;78.63;101081.25;5041591;28;20206;-83
2022/08/29 02:05:30;;;;;;;5.37;3.33;;;;;;;13.25;78.20;101094.38;5041033;28;20565;-81
2022/08/29 02:07:56;;;;;;;5.13;3.20;;;;;;;13.27;78.21;101095.22;5036946;28;20227;-81
2022/08/29 02:10:23;;;;;;;3.67;2.77;;;;;;;13.27;78.34;101092.59;5036572;28;20235;-81
2022/08/29 02:12:51;;;;;;;4.20;3.33;;;;;;;13.34;78.68;101090.72;5036570;28;20259;-82
2022/08/29 02:15:17;;;;;;;4.10;2.83;;;;;;;13.21;78.55;101088.31;5036187;28;20298;-81
2022/08/29 02:17:45;;;;;;;5.77;3.40;;;;;;;13.29;78.61;101078.59;5036543;28;20233;-81
2022/08/29 02:20:12;;;;;;;6.00;3.47;;;;;;;13.37;78.83;101081.06;5032428;28;20235;-80
2022/08/29 02:22:41;;;;;;;6.67;3.30;;;;;;;13.32;78.48;101093.41;5026799;28;20211;-82
2022/08/29 02:27:50;;;;;;;5.80;3.03;;;;;;;13.22;78.87;101079.59;5035303;28;20226;-81
2022/08/29 02:30:17;;;;;;;3.40;2.73;;;;;;;13.31;78.50;101091.66;5036250;28;20198;-80
2022/08/29 02:32:45;;;;;;;7.47;3.43;;;;;;;13.11;78.74;101090.25;5036379;28;20210;-81
2022/08/29 02:35:11;;;;;;;3.77;2.80;;;;;;;13.06;79.33;101079.03;5036017;28;20210;-81
2022/08/29 02:37:37;;;;;;;8.47;4.40;;;;;;;13.04;79.77;101070.31;5038873;28;20799;-83
2022/08/29 02:40:04;;;;;;;7.63;3.77;;;;;;;13.12;79.29;101072.75;5040854;28;20206;-82
2022/08/29 02:42:31;;;;;;;4.37;2.93;;;;;;;13.26;78.78;101065.53;5041007;28;20236;-83
2022/08/29 02:44:57;;;;;;;5.40;3.23;;;;;;;13.27;78.97;101085.59;5038337;28;20287;-81
2022/08/29 02:47:24;;;;;;;5.77;3.20;;;;;;;13.34;78.66;101083.75;5036691;28;20284;-82
2022/08/29 02:49:51;;;;;;;4.50;3.03;;;;;;;13.34;78.94;101085.50;5035716;28;20206;-81
2022/08/29 02:52:18;;;;;;;3.30;2.87;;;;;;;13.38;79.39;101072.31;5024671;28;20261;-81
2022/08/29 02:54:44;;;;;;;6.73;3.10;;;;;;;13.39;78.99;101078.41;5035748;28;20206;-80
2022/08/29 02:57:11;;;;;;;7.13;3.87;;;;;;;13.40;78.40;101087.97;5036497;28;20234;-81
2022/08/29 02:59:37;;;;;;;5.53;2.90;;;;;;;13.35;78.58;101095.09;5037300;28;20243;-81
2022/08/29 03:02:04;;;;;;;6.60;3.17;;;;;;;13.29;79.42;101081.19;5038820;28;20229;-83
2022/08/29 03:04:32;;;;;;;6.20;3.20;;;;;;;13.41;79.48;101076.63;5042740;28;20213;-82
2022/08/29 03:07:00;;;;;;;4.57;3.00;;;;;;;13.42;78.80;101083.56;5043321;28;20237;-82
2022/08/29 03:09:26;;;;;;;3.53;3.03;;;;;;;13.39;78.71;101092.38;5044171;28;20202;-83
2022/08/29 03:11:55;;;;;;;8.97;2.93;;;;;;;13.51;79.03;101080.78;5039668;28;20206;-80
2022/08/29 03:14:23;;;;;;;4.40;3.07;;;;;;;13.65;79.18;101086.59;5036021;28;20209;-82
2022/08/29 03:16:50;;;;;;;4.77;3.27;;;;;;;13.72;78.68;101097.84;5037627;28;20240;-83
2022/08/29 03:19:17;;;;;;;4.67;2.80;;;;;;;13.74;78.15;101105.69;5040185;28;20210;-80
2022/08/29 03:21:43;;;;;;;7.67;3.03;;;;;;;13.57;78.32;101122.63;5032417;28;20268;-83
2022/08/29 03:24:12;;;;;;;5.17;3.40;;;;;;;13.41;78.63;101102.84;5035966;28;20214;-81
2022/08/29 03:26:38;;;;;;;4.93;2.50;;;;;;;13.45;78.98;101081.75;5041586;28;20266;-83
2022/08/29 03:29:05;;;;;;;8.77;2.80;;;;;;;13.58;79.31;101068.41;5041731;28;20312;-83
2022/08/29 03:31:31;;;;;;;7.67;3.57;;;;;;;13.67;79.01;101089.19;5044989;28;20229;-82
2022/08/29 03:33:57;;;;;;;5.43;3.30;;;;;;;13.67;78.81;101084.78;5055104;28;20202;-80
2022/08/29 03:36:25;;;;;;;7.13;3.77;;;;;;;13.80;78.18;101102.91;5054066;28;20277;-80
2022/08/29 03:38:52;;;;;;;4.80;3.07;;;;;;;13.84;78.27;101113.31;5056648;28;20212;-80
2022/08/29 03:41:22;;;;;;;5.90;3.17;;;;;;;13.93;78.13;101125.34;5038542;28;20247;-81
2022/08/29 03:43:48;;;;;;;6.23;3.13;;;;;;;13.65;78.25;101122.47;5035699;28;20238;-83
2022/08/29 03:46:14;;;;;;;4.83;3.37;;;;;;;13.73;78.86;101099.53;5035646;28;20277;-81
2022/08/29 03:48:41;;;;;;;5.57;3.00;;;;;;;13.88;78.43;101093.13;5035337;28;20209;-81
2022/08/29 03:51:08;;;;;;;4.83;2.93;;;;;;;14.02;77.96;101122.53;5030197;28;20717;-81
2022/08/29 03:53:35;;;;;;;7.23;3.60;;;;;;;14.10;77.63;101125.84;5027424;28;20229;-82
2022/08/29 03:56:02;;;;;;;3.60;3.13;;;;;;;14.20;77.07;101155.38;5035505;28;20203;-81
2022/08/29 03:58:30;;;;;;;4.60;3.67;;;;;;;14.29;76.70;101177.94;5035065;28;20273;-81
2022/08/29 04:00:59;;;;;;;5.27;2.70;;;;;;;14.20;76.31;101189.53;5034915;28;20226;-81
2022/08/29 04:03:26;;;;;;;4.40;2.77;;;;;;;14.27;76.51;101193.75;5035266;28;20267;-81
2022/08/29 04:05:53;;;;;;;3.57;2.63;;;;;;;14.17;77.25;101165.97;5034643;28;20233;-81
2022/08/29 04:08:19;;;;;;;3.97;3.20;;;;;;;14.25;77.18;101158.78;5035195;28;20203;-81
2022/08/29 04:10:46;;;;;;;4.47;2.70;;;;;;;14.07;77.71;101160.06;5035089;28;20691;-81
2022/08/29 04:13:13;;;;;;;5.67;3.03;;;;;;;14.23;77.78;101139.59;5035458;28;20209;-81
2022/08/29 04:15:42;;;;;;;3.70;2.73;;;;;;;14.33;77.43;101136.72;5034731;28;20696;-80
2022/08/29 04:18:11;;;;;;;6.03;3.27;;;;;;;14.30;77.50;101150.78;5035697;28;20268;-81
2022/08/29 04:20:43;;;;;;;5.43;3.00;;;;;;;14.35;77.50;101143.69;5030401;28;20213;-82
2022/08/29 04:23:11;;;;;;;8.47;3.37;;;;;;;14.30;77.74;101143.78;5027324;28;20215;-81
2022/08/29 04:25:40;;;;;;;4.93;3.23;;;;;;;14.36;77.88;101131.41;5034739;28;20226;-81
2022/08/29 04:28:09;;;;;;;4.53;2.97;;;;;;;14.38;77.54;101137.50;5005921;28;20306;-81
2022/08/29 04:30:37;;;;;;;3.43;3.07;;;;;;;14.03;80.01;101091.88;5004904;28;20227;-82
2022/08/29 04:33:06;;;;;;;4.27;3.13;;;;;;;13.87;80.97;101052.00;5003805;28;20195;-81
2022/08/29 04:35:34;;;;;;;4.13;3.43;;;;;;;13.72;82.13;100998.13;5006246;28;20757;-80
2022/08/29 04:38:00;;;;;;;5.23;2.87;;;;;;;13.72;82.52;100973.66;5004430;28;20250;-81
2022/08/29 04:40:27;;;;;;;4.43;3.13;;;;;;;13.82;82.72;100969.91;5005836;28;20770;-80
2022/08/29 04:42:53;;;;;;;4.77;3.17;;;;;;;13.93;82.28;100980.16;5004037;28;20682;-82
2022/08/29 04:45:22;;;;;;;6.37;3.10;;;;;;;13.88;82.46;100986.38;5008239;28;20259;-81
2022/08/29 04:47:48;;;;;;;5.17;3.10;;;;;;;13.96;82.75;100987.97;5002394;28;20219;-80
2022/08/29 04:50:18;;;;;;;7.00;3.50;;;;;;;14.04;82.60;100981.59;5004442;28;20203;-82
2022/08/29 04:52:45;;;;;;;4.23;2.83;;;;;;;14.24;82.15;100996.00;5007545;28;20682;-82
2022/08/29 04:55:13;;;;;;;4.80;3.17;;;;;;;14.36;81.43;101019.31;5002020;28;20563;-83
2022/08/29 04:57:40;;;;;;;5.67;3.20;;;;;;;14.33;81.23;101048.31;5003421;28;20223;-80
2022/08/29 05:00:11;;;;;;;6.33;3.30;;;;;;;14.37;81.01;101049.06;5005027;28;20250;-81
2022/08/29 05:02:38;;;;;;;4.40;2.97;;;;;;;14.42;80.59;101062.97;5003747;28;20678;-80
2022/08/29 05:05:06;;;;;;;6.13;2.80;;;;;;;14.55;80.55;101074.00;5002287;28;20735;-80
2022/08/29 05:07:34;;;;;;;7.47;3.03;;;;;;;14.66;80.46;101083.38;5003467;28;20273;-80
2022/08/29 05:10:05;;;;;;;4.43;2.40;;;;;;;14.76;80.21;101099.78;5003960;28;20222;-82
2022/08/29 05:12:32;;;;;;;5.03;2.63;;;;;;;14.74;79.48;101112.09;5003633;28;20208;-82
2022/08/29 05:14:59;;;;;;;5.37;2.90;;;;;;;14.72;80.26;101092.88;5002811;28;20235;-81
2022/08/29 05:17:26;;;;;;;5.10;3.00;;;;;;;14.72;80.80;101078.88;5002276;28;20231;-81
2022/08/29 05:19:53;;;;;;;7.47;3.23;;;;;;;14.57;81.15;101060.00;5004180;28;20251;-80
2022/08/29 05:22:20;;;;;;;7.87;3.60;;;;;;;14.64;81.46;101058.91;5006760;28;20224;-80
2022/08/29 05:24:49;;;;;;;4.77;3.33;;;;;;;14.46;81.47;101057.59;5002017;28;20202;-82
2022/08/29 05:27:17;;;;;;;5.20;3.13;;;;;;;14.20;82.45;101024.09;5001610;28;20246;-81
2022/08/29 05:29:46;;;;;;;8.77;3.43;;;;;;;14.32;82.56;101009.81;5001956;28;20205;-81
2022/08/29 05:32:14;;;;;;;7.03;3.80;;;;;;;14.17;82.90;100999.69;5003996;28;20230;-82
2022/08/29 05:34:42;;;;;;;5.67;3.20;;;;;;;14.23;82.91;100994.28;5003606;28;20204;-83
2022/08/29 05:37:11;;;;;;;4.17;2.87;;;;;;;14.20;82.95;100987.34;5002246;28;20227;-80
2022/08/29 05:39:39;;;;;;;4.00;2.90;;;;;;;14.27;83.22;101003.78;5003280;28;20207;-79
2022/08/29 05:42:08;;;;;;;9.07;3.27;;;;;;;14.17;82.99;101016.31;5002193;28;20226;-81
2022/08/29 05:44:36;;;;;;;4.47;2.70;;;;;;;14.30;82.95;101020.34;5003741;28;20304;-79
2022/08/29 05:47:03;;;;;;;5.63;3.50;;;;;;;14.15;83.00;101030.34;5002679;28;20740;-80
2022/08/29 05:49:30;;;;;;;7.17;3.07;;;;;;;14.26;82.46;101033.59;5002588;28;20203;-81
2022/08/29 05:51:59;;;;;;;3.70;3.10;;;;;;;14.33;82.31;101042.19;5007616;28;20203;-80
2022/08/29 05:54:26;;;;;;;5.73;3.37;;;;;;;14.33;82.76;101039.53;5004038;28;20210;-82
2022/08/29 05:56:52;;;;;;;5.00;3.20;;;;;;;14.36;82.80;101031.59;4995093;28;20225;-81
2022/08/29 05:59:20;;;;;;;5.10;3.37;;;;;;;14.39;82.84;101034.13;4992199;28;20211;-82
2022/08/29 06:01:46;;;;;;;6.73;2.93;;;;;;;14.39;83.37;101021.00;4996897;28;20269;-80
2022/08/29 06:04:13;;;;;;;6.93;3.07;;;;;;;14.56;82.77;101033.72;5001251;28;20200;-81
2022/08/29 06:06:41;;;;;;;6.30;2.60;;;;;;;14.50;82.46;101053.13;5000632;28;20235;-81
2022/08/29 06:09:08;;;;;;;7.47;3.27;;;;;;;14.52;82.66;101058.34;5003241;28;20203;-81
2022/08/29 06:11:34;;;;;;;8.43;3.57;;;;;;;14.68;82.34;101057.09;5001906;28;20194;-79
2022/08/29 06:14:01;;;;;;;4.70;3.20;;;;;;;14.47;82.88;101058.47;5000671;28;20660;-80
2022/08/29 06:16:34;;;;;;;3.27;2.60;;;;;;;14.61;82.76;101047.66;5002388;28;20241;-83
2022/08/29 06:19:02;;;;;;;6.23;3.17;;;;;;;14.73;82.44;101054.31;5005853;28;20200;-83
2022/08/29 06:21:35;;;;;;;5.67;2.80;;;;;;;14.69;82.01;101077.22;5005370;28;20228;-82
2022/08/29 06:24:35;;;;;;;6.73;3.20;;;;;;;14.66;82.16;101078.13;5002371;28;20250;-82
2022/08/29 06:27:02;;;;;;;6.33;2.80;;;;;;;14.54;83.15;101060.03;4992204;28;20289;-80
2022/08/29 06:29:29;;;;;;;5.43;3.13;;;;;;;14.59;82.63;101052.94;5005836;28;20203;-80
2022/08/29 06:31:57;;;;;;;5.30;3.57;;;;;;;14.53;82.58;101057.44;5007215;28;20626;-80
2022/08/29 06:34:24;;;;;;;4.53;3.20;;;;;;;14.60;82.70;101067.78;5005733;28;20216;-82
2022/08/29 06:36:54;;;;;;;7.43;3.20;;;;;;;14.63;82.46;101066.88;5004215;28;20224;-80
2022/08/29 06:39:22;;;;;;;6.37;3.20;;;;;;;14.47;83.02;101076.88;5007182;28;20224;-81
2022/08/29 06:41:48;;;;;;;6.40;3.20;;;;;;;14.26;83.96;101044.09;5005065;28;20232;-81
2022/08/29 06:44:15;;;;;;;4.73;3.13;;;;;;;14.51;83.09;101044.34;5007371;28;20204;-82
2022/08/29 06:46:45;;;;;;;6.40;3.40;;;;;;;14.66;82.91;101067.63;5007674;28;20229;-81
2022/08/29 06:49:23;;;;;;;5.00;3.20;;;;;;;14.79;82.70;101083.94;5006420;28;20219;-83
2022/08/29 06:51:51;;;;;;;5.40;2.90;;;;;;;14.94;81.85;101100.22;5008868;28;20202;-81
2022/08/29 06:54:20;;;;;;;4.40;3.27;;;;;;;14.89;80.84;101132.75;5007740;28;20205;-83
2022/08/29 06:56:47;;;;;;;7.27;2.90;;;;;;;14.93;81.44;101149.31;5006844;28;20269;-82
2022/08/29 06:59:13;;;;;;;4.83;3.50;;;;;;;14.98;81.30;101150.03;5006356;28;20231;-81
2022/08/29 07:01:47;;;;;;;3.87;3.03;;;;;;;15.01;81.20;101141.22;5004932;28;20606;-81
2022/08/29 07:04:15;;;;;;;6.90;4.37;;;;;;;15.00;80.88;101164.00;5010368;28;20208;-80
2022/08/29 07:06:42;;;;;;;4.67;3.23;;;;;;;14.97;80.96;101165.88;5006661;28;20224;-80
2022/08/29 07:09:09;;;;;;;4.70;3.93;;;;;;;15.00;81.16;101144.75;5007533;28;20262;-82
2022/08/29 07:11:38;;;;;;;5.97;3.53;;;;;;;14.99;81.69;101149.16;4996756;28;20205;-83
2022/08/29 07:14:05;;;;;;;7.23;3.60;;;;;;;14.88;81.78;101128.41;4997922;28;20208;-81
2022/08/29 07:16:34;;;;;;;3.77;3.33;;;;;;;14.83;82.12;101124.16;4997846;28;20310;-84
2022/08/29 07:19:01;;;;;;;5.13;3.60;;;;;;;14.87;82.25;101124.03;4995350;28;20914;-82
2022/08/29 07:21:29;;;;;;;5.57;3.60;;;;;;;15.03;82.40;101102.63;5016338;28;20682;-82
2022/08/29 07:23:58;;;;;;;6.73;3.60;;;;;;;15.01;81.93;101118.41;5011675;28;20245;-81
2022/08/29 07:26:28;;;;;;;5.10;3.37;;;;;;;15.07;82.14;101122.66;5005796;28;20299;-83
2022/08/29 07:28:58;;;;;;;6.83;4.27;;;;;;;14.99;82.00;101135.16;5000971;28;20197;-82
2022/08/29 07:31:24;;;;;;;5.73;4.27;;;;;;;15.04;82.14;101118.34;4997776;28;20212;-84
2022/08/29 07:33:51;;;;;;;7.33;4.40;;;;;;;15.04;82.33;101107.84;4999875;28;20204;-84
2022/08/29 07:39:54;;;;;;;7.20;3.70;;;;;;;15.20;83.12;101081.97;4992355;28;20215;-84
2022/08/29 07:42:20;;;;;;;7.93;3.93;;;;;;;15.39;82.41;101095.47;5007062;28;20228;-83
2022/08/29 07:44:46;;;;;;;5.57;3.70;;;;;;;15.40;81.88;101115.63;5007754;28;20207;-81
2022/08/29 07:47:13;;;;;;;6.17;4.13;;;;;;;15.51;81.63;101130.22;5000560;28;20228;-81
2022/08/29 07:49:39;;;;;;;10.03;4.30;;;;;;;15.64;81.52;101137.72;4995244;28;20263;-80
2022/08/29 07:52:06;;;;;;;6.07;3.57;;;;;;;15.57;82.01;101124.78;5027570;28;20207;-82
2022/08/29 07:54:32;;;;;;;6.47;4.10;;;;;;;15.61;81.84;101139.59;5016879;28;20204;-80
2022/08/29 07:57:00;;;;;;;4.57;3.93;;;;;;;15.51;81.99;101136.34;5015495;28;20230;-80
2022/08/29 07:59:26;;;;;;;5.53;3.87;;;;;;;15.72;82.34;101112.94;5014961;28;20197;-81
2022/08/29 08:01:53;;;;;;;10.77;4.47;;;;;;;15.87;82.20;101117.78;5013990;28;20213;-80
2022/08/29 08:04:19;;;;;;;6.97;3.63;;;;;;;16.01;81.33;101139.28;5015552;28;20237;-81
2022/08/29 08:06:48;;;;;;;5.80;3.53;;;;;;;16.21;80.92;101161.53;5013784;28;20270;-81
2022/08/29 08:09:22;;;;;;;9.13;4.37;;;;;;;16.18;80.22;101188.00;5014389;28;20284;-81
2022/08/29 08:11:49;;;;;;;9.10;3.80;;;;;;;15.95;81.68;101165.81;5015221;28;20212;-81
2022/08/29 08:14:38;;;;;;;7.47;4.40;;;;;;;16.07;81.36;101152.31;5016733;28;20214;-82
2022/08/29 08:21:11;;;;;;;6.30;4.77;;;;;;;16.38;80.64;101187.38;5001045;28;20216;-82
2022/08/29 08:24:02;;;;;;;5.47;3.83;;;;;;;16.50;80.63;101191.41;5026491;28;20240;-83
2022/08/29 08:26:39;;;;;;;6.23;3.83;;;;;;;16.58;80.40;101199.91;5035617;28;20251;-82
2022/08/29 08:29:29;;;;;;;5.23;3.60;;;;;;;16.39;80.56;101210.16;5035942;28;20323;-80
2022/08/29 08:31:58;;;;;;;4.93;4.00;;;;;;;16.43;81.15;101186.31;5032683;28;20214;-82
2022/08/29 08:34:28;;;;;;;7.47;4.60;;;;;;;16.59;80.78;101186.69;5036372;28;20674;-82
2022/08/29 08:36:54;;;;;;;6.23;4.90;;;;;;;16.66;81.04;101185.56;5034398;28;20230;-81
2022/08/29 08:39:21;;;;;;;6.53;4.17;;;;;;;16.74;80.73;101174.78;5034611;28;20627;-80
2022/08/29 08:41:57;;;;;;;6.07;4.40;;;;;;;16.77;80.41;101208.97;5033358;28;20209;-80
2022/08/29 08:44:51;;;;;;;6.57;4.87;;;;;;;16.77;80.79;101187.88;5032372;28;20200;-82
2022/08/29 08:47:25;;;;;;;8.03;4.33;;;;;;;16.94;81.61;101170.66;5024527;28;20228;-80
2022/08/29 08:50:08;;;;;;;5.97;3.70;;;;;;;16.95;81.91;101151.31;5032294;28;20246;-84
2022/08/29 08:52:43;;;;;;;8.37;5.30;;;;;;;16.65;83.01;101138.19;5028670;28;20212;-84
2022/08/29 08:55:19;;;;;;;9.80;5.27;;;;;;;16.37;84.37;101083.75;5012199;28;20212;-83
2022/08/29 09:02:08;;;;;;;9.63;6.13;;;;;;;16.13;89.21;100930.00;4944265;28;20687;-85
2022/08/29 09:04:52;;;;;;;7.43;6.53;;;;;;;16.29;90.66;100901.34;5016080;28;20238;-81
2022/08/29 09:07:41;;;;;;;9.17;6.80;;;;;;;16.14;91.11;100894.00;5014084;28;20599;-82
2022/08/29 09:13:51;;;;;;;9.00;6.83;;;;;;;16.56;90.76;100903.91;5013231;28;20250;-83
2022/08/29 09:16:23;;;;;;;8.93;5.80;;;;;;;16.73;89.49;100956.88;5014329;28;20296;-79
2022/08/29 09:18:50;;;;;;;9.77;7.03;;;;;;;16.41;89.36;100982.63;5014887;28;20209;-81
2022/08/29 09:21:21;;;;;;;10.30;7.57;;;;;;;16.31;91.17;100953.97;5019903;28;20262;-83
2022/08/29 09:23:51;;;;;;;9.47;7.30;;;;;;;16.37;92.46;100908.97;5020268;28;20315;-82
2022/08/29 09:26:19;;;;;;;9.63;7.37;;;;;;;16.24;93.17;100890.13;5011974;28;20228;-83
2022/08/29 09:28:46;;;;;;;9.83;7.63;;;;;;;16.34;93.52;100886.25;5013909;28;20205;-81
2022/08/29 09:31:22;;;;;;;9.33;7.00;;;;;;;16.50;92.72;100904.16;5015737;28;20743;-81
2022/08/29 09:33:52;;;;;;;7.70;6.87;;;;;;;16.56;91.21;100944.31;5015428;28;20285;-80
2022/08/29 09:36:37;;;;;;;8.33;7.47;;;;;;;16.87;90.83;100966.97;5015155;28;20225;-86
2022/08/29 09:39:12;;;;;;;12.70;6.70;;;;;;;17.12;90.31;100981.88;5016104;28;20214;-81
2022/08/29 09:41:38;;;;;;;9.93;6.40;;;;;;;17.22;88.56;101026.34;5016633;28;20232;-83
2022/08/29 09:44:08;;;;;;;7.60;6.77;;;;;;;17.22;86.47;101088.78;5016647;28;20226;-82
2022/08/29 09:46:34;;;;;;;8.40;6.33;;;;;;;17.25;85.65;101134.38;5017184;28;20263;-86
2022/08/29 09:49:12;;;;;;;8.37;6.17;;;;;;;17.20;84.89;101175.03;5031139;28;20615;-86
2022/08/29 09:51:42;;;;;;;6.73;6.07;;;;;;;17.19;84.51;101175.97;5036246;28;20239;-84
2022/08/29 09:54:16;;;;;;;9.07;6.50;;;;;;;17.26;85.15;101174.81;5037184;28;20209;-83
2022/08/29 09:56:48;;;;;;;9.37;5.90;;;;;;;17.31;86.56;101128.03;5031615;28;20233;-82
2022/08/29 09:59:23;;;;;;;8.43;6.23;;;;;;;17.37;86.15;101126.97;5031548;28;20276;-83
2022/08/29 10:01:49;;;;;;;13.13;6.43;;;;;;;17.46;85.47;101143.31;5033432;28;20201;-80
2022/08/29 10:04:44;;;;;;;7.30;5.57;;;;;;;17.51;84.82;101163.41;5035598;28;20700;-81
2022/08/29 10:10:34;;;;;;;12.80;7.57;;;;;;;17.41;83.01;101198.03;4987805;28;20312;-79
2022/08/29 10:13:23;;;;;;;7.97;6.00;;;;;;;17.67;83.73;101190.97;5036380;28;20201;-84
2022/08/29 10:15:53;;;;;;;9.70;6.50;;;;;;;18.00;83.56;101186.25;5044984;22;20197;-80
2022/08/29 10:18:27;;;;;;;6.37;5.50;;;;;;;17.93;83.50;101216.44;5018100;28;20234;-82
2022/08/29 10:21:06;;;;;;;6.57;5.63;;;;;;;17.84;82.96;101200.97;5023439;28;20230;-79
2022/08/29 10:23:39;;;;;;;6.17;5.47;;;;;;;17.81;83.92;101177.25;5030937;28;20626;-82
2022/08/29 10:26:29;;;;;;;8.03;6.00;;;;;;;17.97;82.99;101201.34;5039535;28;20221;-83
2022/08/29 10:29:03;;;;;;;8.93;6.13;;;;;;;17.95;83.84;101182.91;5039243;28;20240;-82
2022/08/29 10:31:36;;;;;;;11.87;5.97;;;;;;;18.10;83.16;101192.03;5038939;28;20216;-81
2022/08/29 10:34:21;;;;;;;8.63;6.63;;;;;;;17.98;84.49;101155.53;5028053;28;20459;-80
2022/08/29 10:36:55;;;;;;;6.97;6.20;;;;;;;17.83;83.52;101173.66;5009060;28;20255;-79
2022/08/29 10:39:33;;;;;;;10.50;6.73;;;;;;;17.89;84.10;101147.94;5012233;28;20258;-80
2022/08/29 10:42:08;;;;;;;12.67;7.37;;;;;;;17.84;84.96;101127.00;5019343;28;20212;-77
2022/08/29 10:44:44;;;;;;;8.10;7.30;;;;;;;17.83;85.97;101102.34;5020013;28;20655;-82
2022/08/29 10:47:24;;;;;;;10.37;7.97;;;;;;;17.70;85.61;101102.84;5019392;28;20559;-82
2022/08/29 10:50:02;;;;;;;10.20;7.80;;;;;;;17.70;85.01;101119.56;5018486;28;20291;-82
2022/08/29 10:52:35;;;;;;;12.70;7.40;;;;;;;17.94;83.67;101144.22;5027338;28;20184;-82
2022/08/29 10:55:12;;;;;;;8.17;7.27;;;;;;;17.94;82.82;101198.81;5039085;28;20282;-83
2022/08/29 10:57:54;;;;;;;7.83;6.77;;;;;;;18.13;82.32;101222.78;5039036;28;20251;-82
2022/08/29 11:00:24;;;;;;;11.40;7.77;;;;;;;18.23;81.66;101219.69;5038507;28;20221;-83
2022/08/29 11:02:58;;;;;;;7.40;6.70;;;;;;;18.43;81.66;101229.53;5038247;28;20747;-80
2022/08/29 11:05:27;;;;;;;10.10;7.93;;;;;;;18.59;80.99;101244.78;5038248;28;20209;-81
2022/08/29 11:08:00;;;;;;;10.87;7.90;;;;;;;18.52;81.38;101236.22;5038829;28;20248;-82
2022/08/29 11:10:30;;;;;;;7.80;7.00;;;;;;;18.72;80.32;101243.38;5039219;28;20671;-81
2022/08/29 11:13:04;;;;;;;7.40;6.80;;;;;;;18.97;79.59;101288.25;5039751;28;20205;-81
2022/08/29 11:15:36;;;;;;;14.80;6.93;;;;;;;19.11;78.83;101315.91;5038417;28;20627;-83
2022/08/29 11:18:14;;;;;;;7.83;6.93;;;;;;;19.25;78.50;101342.72;5039875;28;20228;-81
2022/08/29 11:20:46;;;;;;;6.60;6.00;;;;;;;19.32;76.66;101381.22;5034476;28;20922;-83
2022/08/29 11:23:19;;;;;;;7.03;6.27;;;;;;;19.63;76.17;101403.84;5030349;28;20229;-79
2022/08/29 11:25:46;;;;;;;6.93;5.97;;;;;;;19.88;74.56;101446.09;5038898;28;20676;-80
2022/08/29 11:28:23;;;;;;;8.53;6.17;;;;;;;20.00;74.03;101477.38;5037821;28;20216;-82
2022/08/29 11:30:58;;;;;;;6.17;5.57;;;;;;;19.87;74.67;101462.91;5038699;28;20261;-81
2022/08/29 11:33:35;;;;;;;6.90;5.70;;;;;;;20.57;73.13;101472.31;5037940;28;20706;-81
2022/08/29 11:36:20;;;;;;;5.83;5.40;;;;;;;22.22;68.67;101589.53;5037633;28;20217;-79
2022/08/29 11:39:10;;;;;;;5.07;4.63;;;;;;;23.50;60.81;101884.13;5025578;28;20241;-80
2022/08/29 11:41:38;;;;;;;5.73;5.33;;;;;;;25.35;55.28;102041.69;5018822;28;20254;-81
2022/08/29 11:44:19;;;;;;;5.80;5.17;;;;;;;26.86;51.80;102195.50;5019325;28;20233;-81
2022/08/29 11:46:48;;;;;;;5.37;4.87;;;;;;;27.30;47.48;102342.97;5018804;28;20660;-82
2022/08/29 11:49:37;;;;;;;5.60;5.10;;;;;;;27.28;48.87;102344.03;5019631;28;20212;-82
2022/08/29 11:52:21;;;;;;;5.40;4.90;;;;;;;25.94;51.88;102212.31;5026496;28;20756;-82
2022/08/29 11:55:23;;;;;;;5.50;5.00;;;;;;;27.90;46.76;102189.03;4999943;28;20227;-82
2022/08/29 11:57:56;;;;;;;9.50;4.83;;;;;;;29.43;44.41;102295.34;4997832;28;20203;-81
2022/08/29 12:00:33;;;;;;;4.87;4.40;;;;;;;29.02;43.77;102331.31;5000028;28;20286;-82
2022/08/29 12:02:59;;;;;;;4.00;3.70;;;;;;;28.05;45.10;102299.09;5020875;28;20219;-82